sensor_id;sensor_type;location;lat;lon;timestamp;P1;durP1;ratioP1;P2;durP2;ratioP2
64641;SDS011;59936;51.490;5.436;2023-09-19T00:00:46;11.30;;;2.80;;
64641;SDS011;59936;51.490;5.436;2023-09-19T00:05:41;13.60;;;3.20;;
64641;SDS011;59936;51.490;5.436;2023-09-19T00:08:10;16.60;;;2.90;;
64641;SDS011;59936;51.490;5.436;2023-09-19T00:10:39;12.70;;;2.80;;
64641;SDS011;59936;51.490;5.436;2023-09-19T00:13:08;12.90;;;2.70;;
64641;SDS011;59936;51.490;5.436;2023-09-19T00:15:41;16.90;;;2.90;;
64641;SDS011;59936;51.490;5.436;2023-09-19T00:18:15;14.20;;;3.10;;
64641;SDS011;59936;51.490;5.436;2023-09-19T00:20:45;15.40;;;3.30;;
64641;SDS011;59936;51.490;5.436;2023-09-19T00:23:14;14.70;;;2.90;;
64641;SDS011;59936;51.490;5.436;2023-09-19T00:25:43;12.10;;;2.60;;
64641;SDS011;59936;51.490;5.436;2023-09-19T00:28:11;13.90;;;3.20;;
64641;SDS011;59936;51.490;5.436;2023-09-19T00:30:42;12.40;;;2.80;;
64641;SDS011;59936;51.490;5.436;2023-09-19T00:33:11;10.90;;;3.40;;
64641;SDS011;59936;51.490;5.436;2023-09-19T00:35:46;8.70;;;2.20;;
64641;SDS011;59936;51.490;5.436;2023-09-19T00:38:22;9.50;;;3.00;;
64641;SDS011;59936;51.490;5.436;2023-09-19T00:40:51;12.20;;;3.70;;
64641;SDS011;59936;51.490;5.436;2023-09-19T00:43:22;12.90;;;2.50;;
64641;SDS011;59936;51.490;5.436;2023-09-19T00:45:52;15.10;;;2.70;;
64641;SDS011;59936;51.490;5.436;2023-09-19T00:48:23;9.70;;;3.10;;
64641;SDS011;59936;51.490;5.436;2023-09-19T00:50:54;9.20;;;2.90;;
64641;SDS011;59936;51.490;5.436;2023-09-19T00:53:25;12.50;;;2.80;;
64641;SDS011;59936;51.490;5.436;2023-09-19T00:55:54;12.20;;;2.80;;
64641;SDS011;59936;51.490;5.436;2023-09-19T00:58:23;12.90;;;2.80;;
64641;SDS011;59936;51.490;5.436;2023-09-19T01:00:52;13.30;;;3.00;;
64641;SDS011;59936;51.490;5.436;2023-09-19T01:03:21;12.20;;;2.70;;
64641;SDS011;59936;51.490;5.436;2023-09-19T01:05:50;8.60;;;2.80;;
64641;SDS011;59936;51.490;5.436;2023-09-19T01:08:19;8.00;;;2.60;;
64641;SDS011;59936;51.490;5.436;2023-09-19T01:14:14;10.70;;;2.90;;
64641;SDS011;59936;51.490;5.436;2023-09-19T01:20:11;10.30;;;2.80;;
64641;SDS011;59936;51.490;5.436;2023-09-19T01:22:56;13.60;;;2.90;;
64641;SDS011;59936;51.490;5.436;2023-09-19T01:25:58;10.70;;;3.00;;
64641;SDS011;59936;51.490;5.436;2023-09-19T01:28:53;14.20;;;3.20;;
64641;SDS011;59936;51.490;5.436;2023-09-19T01:31:49;17.30;;;3.20;;
64641;SDS011;59936;51.490;5.436;2023-09-19T01:34:21;9.30;;;2.40;;
64641;SDS011;59936;51.490;5.436;2023-09-19T01:36:49;7.70;;;2.50;;
64641;SDS011;59936;51.490;5.436;2023-09-19T01:39:18;9.50;;;3.00;;
64641;SDS011;59936;51.490;5.436;2023-09-19T01:41:54;15.40;;;3.00;;
64641;SDS011;59936;51.490;5.436;2023-09-19T01:47:28;7.50;;;2.50;;
64641;SDS011;59936;51.490;5.436;2023-09-19T01:53:00;8.10;;;2.60;;
64641;SDS011;59936;51.490;5.436;2023-09-19T01:55:36;12.00;;;2.50;;
64641;SDS011;59936;51.490;5.436;2023-09-19T01:58:14;9.40;;;3.00;;
64641;SDS011;59936;51.490;5.436;2023-09-19T02:01:01;11.20;;;3.00;;
64641;SDS011;59936;51.490;5.436;2023-09-19T02:03:33;9.10;;;2.40;;
64641;SDS011;59936;51.490;5.436;2023-09-19T02:06:04;8.30;;;2.90;;
64641;SDS011;59936;51.490;5.436;2023-09-19T02:08:33;9.00;;;2.90;;
64641;SDS011;59936;51.490;5.436;2023-09-19T02:11:02;12.90;;;2.90;;
64641;SDS011;59936;51.490;5.436;2023-09-19T02:13:30;7.10;;;2.50;;
64641;SDS011;59936;51.490;5.436;2023-09-19T02:15:59;9.10;;;2.50;;
64641;SDS011;59936;51.490;5.436;2023-09-19T02:18:28;8.00;;;3.00;;
64641;SDS011;59936;51.490;5.436;2023-09-19T02:20:56;11.20;;;2.50;;
64641;SDS011;59936;51.490;5.436;2023-09-19T02:23:25;9.70;;;2.70;;
64641;SDS011;59936;51.490;5.436;2023-09-19T02:25:54;11.40;;;2.90;;
64641;SDS011;59936;51.490;5.436;2023-09-19T02:28:23;13.00;;;2.90;;
64641;SDS011;59936;51.490;5.436;2023-09-19T02:30:51;8.70;;;3.00;;
64641;SDS011;59936;51.490;5.436;2023-09-19T02:33:20;14.80;;;3.00;;
64641;SDS011;59936;51.490;5.436;2023-09-19T02:35:48;10.10;;;2.30;;
64641;SDS011;59936;51.490;5.436;2023-09-19T02:38:17;12.70;;;2.60;;
64641;SDS011;59936;51.490;5.436;2023-09-19T02:40:46;11.60;;;2.60;;
64641;SDS011;59936;51.490;5.436;2023-09-19T02:43:14;8.20;;;2.60;;
64641;SDS011;59936;51.490;5.436;2023-09-19T02:45:43;13.20;;;2.80;;
64641;SDS011;59936;51.490;5.436;2023-09-19T02:48:11;9.90;;;2.60;;
64641;SDS011;59936;51.490;5.436;2023-09-19T02:50:40;9.40;;;2.80;;
64641;SDS011;59936;51.490;5.436;2023-09-19T02:53:09;6.60;;;2.30;;
64641;SDS011;59936;51.490;5.436;2023-09-19T02:55:37;8.20;;;2.80;;
64641;SDS011;59936;51.490;5.436;2023-09-19T02:58:07;7.10;;;2.80;;
64641;SDS011;59936;51.490;5.436;2023-09-19T03:00:35;7.90;;;2.60;;
64641;SDS011;59936;51.490;5.436;2023-09-19T03:03:05;6.60;;;2.50;;
64641;SDS011;59936;51.490;5.436;2023-09-19T03:05:34;5.30;;;2.30;;
64641;SDS011;59936;51.490;5.436;2023-09-19T03:08:03;9.20;;;2.40;;
64641;SDS011;59936;51.490;5.436;2023-09-19T03:10:31;9.80;;;2.70;;
64641;SDS011;59936;51.490;5.436;2023-09-19T03:13:00;14.20;;;2.70;;
64641;SDS011;59936;51.490;5.436;2023-09-19T03:15:29;7.10;;;2.60;;
64641;SDS011;59936;51.490;5.436;2023-09-19T03:17:57;6.50;;;2.30;;
64641;SDS011;59936;51.490;5.436;2023-09-19T03:20:26;5.50;;;2.40;;
64641;SDS011;59936;51.490;5.436;2023-09-19T03:22:54;14.00;;;2.50;;
64641;SDS011;59936;51.490;5.436;2023-09-19T03:25:23;9.00;;;2.50;;
64641;SDS011;59936;51.490;5.436;2023-09-19T03:27:51;8.80;;;2.60;;
64641;SDS011;59936;51.490;5.436;2023-09-19T03:30:20;8.50;;;2.30;;
64641;SDS011;59936;51.490;5.436;2023-09-19T03:32:49;7.10;;;2.70;;
64641;SDS011;59936;51.490;5.436;2023-09-19T03:35:17;8.80;;;2.40;;
64641;SDS011;59936;51.490;5.436;2023-09-19T03:37:46;8.00;;;2.30;;
64641;SDS011;59936;51.490;5.436;2023-09-19T03:40:15;8.00;;;2.50;;
64641;SDS011;59936;51.490;5.436;2023-09-19T03:42:43;9.80;;;2.50;;
64641;SDS011;59936;51.490;5.436;2023-09-19T03:45:12;11.40;;;2.40;;
64641;SDS011;59936;51.490;5.436;2023-09-19T03:47:41;10.20;;;2.80;;
64641;SDS011;59936;51.490;5.436;2023-09-19T03:50:10;8.40;;;2.40;;
64641;SDS011;59936;51.490;5.436;2023-09-19T03:52:38;7.00;;;2.30;;
64641;SDS011;59936;51.490;5.436;2023-09-19T03:55:07;10.90;;;2.80;;
64641;SDS011;59936;51.490;5.436;2023-09-19T03:57:36;3.10;;;1.70;;
64641;SDS011;59936;51.490;5.436;2023-09-19T04:00:05;7.30;;;2.50;;
64641;SDS011;59936;51.490;5.436;2023-09-19T04:02:35;6.90;;;2.50;;
64641;SDS011;59936;51.490;5.436;2023-09-19T04:05:03;7.80;;;2.60;;
64641;SDS011;59936;51.490;5.436;2023-09-19T04:07:32;6.00;;;2.50;;
64641;SDS011;59936;51.490;5.436;2023-09-19T04:10:01;9.60;;;2.50;;
64641;SDS011;59936;51.490;5.436;2023-09-19T04:12:30;9.80;;;2.80;;
64641;SDS011;59936;51.490;5.436;2023-09-19T04:14:59;10.80;;;3.00;;
64641;SDS011;59936;51.490;5.436;2023-09-19T04:17:27;10.40;;;3.00;;
64641;SDS011;59936;51.490;5.436;2023-09-19T04:19:56;8.70;;;2.50;;
64641;SDS011;59936;51.490;5.436;2023-09-19T04:22:25;11.00;;;2.60;;
64641;SDS011;59936;51.490;5.436;2023-09-19T04:24:54;11.00;;;2.70;;
64641;SDS011;59936;51.490;5.436;2023-09-19T04:27:22;6.70;;;2.50;;
64641;SDS011;59936;51.490;5.436;2023-09-19T04:29:51;9.90;;;2.80;;
64641;SDS011;59936;51.490;5.436;2023-09-19T04:32:19;10.60;;;2.80;;
64641;SDS011;59936;51.490;5.436;2023-09-19T04:34:48;9.60;;;2.30;;
64641;SDS011;59936;51.490;5.436;2023-09-19T04:37:17;14.10;;;2.80;;
64641;SDS011;59936;51.490;5.436;2023-09-19T04:39:45;7.40;;;2.50;;
64641;SDS011;59936;51.490;5.436;2023-09-19T04:42:14;13.10;;;2.90;;
64641;SDS011;59936;51.490;5.436;2023-09-19T04:44:42;7.00;;;2.50;;
64641;SDS011;59936;51.490;5.436;2023-09-19T04:47:11;9.90;;;2.60;;
64641;SDS011;59936;51.490;5.436;2023-09-19T04:49:39;13.80;;;3.10;;
64641;SDS011;59936;51.490;5.436;2023-09-19T04:52:08;11.50;;;2.50;;
64641;SDS011;59936;51.490;5.436;2023-09-19T04:54:36;7.40;;;2.90;;
64641;SDS011;59936;51.490;5.436;2023-09-19T04:57:08;9.30;;;3.00;;
64641;SDS011;59936;51.490;5.436;2023-09-19T04:59:41;14.00;;;2.70;;
64641;SDS011;59936;51.490;5.436;2023-09-19T05:02:10;9.10;;;2.60;;
64641;SDS011;59936;51.490;5.436;2023-09-19T05:04:39;10.00;;;2.40;;
64641;SDS011;59936;51.490;5.436;2023-09-19T05:07:07;8.70;;;2.50;;
64641;SDS011;59936;51.490;5.436;2023-09-19T05:09:36;7.20;;;2.50;;
64641;SDS011;59936;51.490;5.436;2023-09-19T05:12:04;11.60;;;2.50;;
64641;SDS011;59936;51.490;5.436;2023-09-19T05:14:33;10.10;;;3.00;;
64641;SDS011;59936;51.490;5.436;2023-09-19T05:17:02;10.30;;;2.90;;
64641;SDS011;59936;51.490;5.436;2023-09-19T05:19:30;12.00;;;3.50;;
64641;SDS011;59936;51.490;5.436;2023-09-19T05:21:59;9.00;;;2.60;;
64641;SDS011;59936;51.490;5.436;2023-09-19T05:24:28;9.60;;;2.80;;
64641;SDS011;59936;51.490;5.436;2023-09-19T05:26:56;11.40;;;3.00;;
64641;SDS011;59936;51.490;5.436;2023-09-19T05:29:25;11.50;;;3.00;;
64641;SDS011;59936;51.490;5.436;2023-09-19T05:31:53;6.20;;;2.40;;
64641;SDS011;59936;51.490;5.436;2023-09-19T05:34:22;6.30;;;2.50;;
64641;SDS011;59936;51.490;5.436;2023-09-19T05:36:50;8.70;;;2.60;;
64641;SDS011;59936;51.490;5.436;2023-09-19T05:39:19;8.70;;;2.20;;
64641;SDS011;59936;51.490;5.436;2023-09-19T05:41:48;9.90;;;2.60;;
64641;SDS011;59936;51.490;5.436;2023-09-19T05:44:16;7.80;;;2.00;;
64641;SDS011;59936;51.490;5.436;2023-09-19T05:46:45;12.30;;;2.90;;
64641;SDS011;59936;51.490;5.436;2023-09-19T05:49:14;11.60;;;2.70;;
64641;SDS011;59936;51.490;5.436;2023-09-19T05:51:42;8.60;;;2.90;;
64641;SDS011;59936;51.490;5.436;2023-09-19T05:54:11;12.50;;;3.20;;
64641;SDS011;59936;51.490;5.436;2023-09-19T05:56:39;6.90;;;2.40;;
64641;SDS011;59936;51.490;5.436;2023-09-19T05:59:08;13.70;;;3.40;;
64641;SDS011;59936;51.490;5.436;2023-09-19T06:01:36;11.80;;;2.40;;
64641;SDS011;59936;51.490;5.436;2023-09-19T06:04:05;8.70;;;2.40;;
64641;SDS011;59936;51.490;5.436;2023-09-19T06:06:34;10.70;;;2.90;;
64641;SDS011;59936;51.490;5.436;2023-09-19T06:09:03;11.50;;;2.80;;
64641;SDS011;59936;51.490;5.436;2023-09-19T06:11:31;10.40;;;2.30;;
64641;SDS011;59936;51.490;5.436;2023-09-19T06:14:00;14.60;;;2.60;;
64641;SDS011;59936;51.490;5.436;2023-09-19T06:16:30;9.60;;;2.60;;
64641;SDS011;59936;51.490;5.436;2023-09-19T06:18:59;10.00;;;2.80;;
64641;SDS011;59936;51.490;5.436;2023-09-19T06:21:28;12.40;;;2.40;;
64641;SDS011;59936;51.490;5.436;2023-09-19T06:23:56;8.80;;;2.80;;
64641;SDS011;59936;51.490;5.436;2023-09-19T06:26:25;12.10;;;3.20;;
64641;SDS011;59936;51.490;5.436;2023-09-19T06:28:53;17.70;;;2.60;;
64641;SDS011;59936;51.490;5.436;2023-09-19T06:31:22;10.10;;;2.50;;
64641;SDS011;59936;51.490;5.436;2023-09-19T06:33:50;8.90;;;2.90;;
64641;SDS011;59936;51.490;5.436;2023-09-19T06:36:19;11.70;;;2.70;;
64641;SDS011;59936;51.490;5.436;2023-09-19T06:38:48;8.90;;;2.60;;
64641;SDS011;59936;51.490;5.436;2023-09-19T06:41:17;11.80;;;2.40;;
64641;SDS011;59936;51.490;5.436;2023-09-19T06:43:46;11.70;;;2.80;;
64641;SDS011;59936;51.490;5.436;2023-09-19T06:46:14;15.40;;;2.80;;
64641;SDS011;59936;51.490;5.436;2023-09-19T06:48:43;10.60;;;3.10;;
64641;SDS011;59936;51.490;5.436;2023-09-19T06:51:11;8.50;;;2.70;;
64641;SDS011;59936;51.490;5.436;2023-09-19T06:53:40;8.00;;;2.50;;
64641;SDS011;59936;51.490;5.436;2023-09-19T06:56:09;15.10;;;2.50;;
64641;SDS011;59936;51.490;5.436;2023-09-19T06:58:37;13.50;;;2.90;;
64641;SDS011;59936;51.490;5.436;2023-09-19T07:01:06;11.70;;;2.70;;
64641;SDS011;59936;51.490;5.436;2023-09-19T07:03:34;13.60;;;3.30;;
64641;SDS011;59936;51.490;5.436;2023-09-19T07:06:03;14.50;;;2.90;;
64641;SDS011;59936;51.490;5.436;2023-09-19T07:08:32;11.80;;;3.20;;
64641;SDS011;59936;51.490;5.436;2023-09-19T07:11:00;13.40;;;2.90;;
64641;SDS011;59936;51.490;5.436;2023-09-19T07:13:29;11.10;;;2.80;;
64641;SDS011;59936;51.490;5.436;2023-09-19T07:15:58;12.20;;;3.30;;
64641;SDS011;59936;51.490;5.436;2023-09-19T07:18:27;7.60;;;2.70;;
64641;SDS011;59936;51.490;5.436;2023-09-19T07:20:58;11.90;;;2.70;;
64641;SDS011;59936;51.490;5.436;2023-09-19T07:23:27;7.00;;;2.50;;
64641;SDS011;59936;51.490;5.436;2023-09-19T07:25:58;8.40;;;2.60;;
64641;SDS011;59936;51.490;5.436;2023-09-19T07:28:27;14.20;;;3.00;;
64641;SDS011;59936;51.490;5.436;2023-09-19T07:30:56;12.60;;;2.50;;
64641;SDS011;59936;51.490;5.436;2023-09-19T07:33:24;12.30;;;3.00;;
64641;SDS011;59936;51.490;5.436;2023-09-19T07:35:53;9.70;;;2.60;;
64641;SDS011;59936;51.490;5.436;2023-09-19T07:38:21;10.70;;;2.50;;
64641;SDS011;59936;51.490;5.436;2023-09-19T07:40:50;11.30;;;2.40;;
64641;SDS011;59936;51.490;5.436;2023-09-19T07:43:18;15.80;;;2.70;;
64641;SDS011;59936;51.490;5.436;2023-09-19T07:45:47;13.40;;;3.00;;
64641;SDS011;59936;51.490;5.436;2023-09-19T07:48:16;12.20;;;2.60;;
64641;SDS011;59936;51.490;5.436;2023-09-19T07:50:44;6.90;;;2.60;;
64641;SDS011;59936;51.490;5.436;2023-09-19T07:53:13;7.30;;;2.40;;
64641;SDS011;59936;51.490;5.436;2023-09-19T07:55:41;16.40;;;3.60;;
64641;SDS011;59936;51.490;5.436;2023-09-19T07:58:10;22.20;;;3.20;;
64641;SDS011;59936;51.490;5.436;2023-09-19T08:00:38;12.60;;;2.50;;
64641;SDS011;59936;51.490;5.436;2023-09-19T08:03:07;10.10;;;2.70;;
64641;SDS011;59936;51.490;5.436;2023-09-19T08:05:36;8.20;;;3.10;;
64641;SDS011;59936;51.490;5.436;2023-09-19T08:08:04;7.80;;;2.70;;
64641;SDS011;59936;51.490;5.436;2023-09-19T08:10:33;9.70;;;2.10;;
64641;SDS011;59936;51.490;5.436;2023-09-19T08:13:01;8.50;;;2.60;;
64641;SDS011;59936;51.490;5.436;2023-09-19T08:15:30;9.20;;;2.60;;
64641;SDS011;59936;51.490;5.436;2023-09-19T08:17:59;14.60;;;2.80;;
64641;SDS011;59936;51.490;5.436;2023-09-19T08:20:27;11.20;;;2.80;;
64641;SDS011;59936;51.490;5.436;2023-09-19T08:22:56;6.50;;;2.30;;
64641;SDS011;59936;51.490;5.436;2023-09-19T08:25:24;11.40;;;2.80;;
64641;SDS011;59936;51.490;5.436;2023-09-19T08:27:53;11.80;;;2.70;;
64641;SDS011;59936;51.490;5.436;2023-09-19T08:30:23;12.60;;;2.90;;
64641;SDS011;59936;51.490;5.436;2023-09-19T08:32:59;11.00;;;3.30;;
64641;SDS011;59936;51.490;5.436;2023-09-19T08:35:28;13.20;;;3.20;;
64641;SDS011;59936;51.490;5.436;2023-09-19T08:37:57;13.30;;;3.05;;
64641;SDS011;59936;51.490;5.436;2023-09-19T08:40:25;9.90;;;2.60;;
64641;SDS011;59936;51.490;5.436;2023-09-19T08:42:54;8.50;;;3.10;;
64641;SDS011;59936;51.490;5.436;2023-09-19T08:45:24;15.00;;;2.80;;
64641;SDS011;59936;51.490;5.436;2023-09-19T08:50:49;11.35;;;3.20;;
64641;SDS011;59936;51.490;5.436;2023-09-19T08:53:27;8.95;;;2.85;;
64641;SDS011;59936;51.490;5.436;2023-09-19T08:56:10;12.50;;;2.80;;
64641;SDS011;59936;51.490;5.436;2023-09-19T08:58:48;10.40;;;2.60;;
64641;SDS011;59936;51.490;5.436;2023-09-19T09:01:21;11.30;;;2.50;;
64641;SDS011;59936;51.490;5.436;2023-09-19T09:03:51;8.70;;;2.60;;
64641;SDS011;59936;51.490;5.436;2023-09-19T09:06:22;10.90;;;3.10;;
64641;SDS011;59936;51.490;5.436;2023-09-19T09:08:52;10.70;;;2.60;;
64641;SDS011;59936;51.490;5.436;2023-09-19T09:11:21;11.90;;;3.00;;
64641;SDS011;59936;51.490;5.436;2023-09-19T09:13:50;10.80;;;2.80;;
64641;SDS011;59936;51.490;5.436;2023-09-19T09:16:19;8.70;;;2.80;;
64641;SDS011;59936;51.490;5.436;2023-09-19T09:18:47;8.40;;;3.10;;
64641;SDS011;59936;51.490;5.436;2023-09-19T09:21:18;11.90;;;2.90;;
64641;SDS011;59936;51.490;5.436;2023-09-19T09:23:47;10.20;;;2.80;;
64641;SDS011;59936;51.490;5.436;2023-09-19T09:26:17;15.50;;;3.10;;
64641;SDS011;59936;51.490;5.436;2023-09-19T09:29:08;13.10;;;2.70;;
64641;SDS011;59936;51.490;5.436;2023-09-19T09:31:37;9.60;;;2.70;;
64641;SDS011;59936;51.490;5.436;2023-09-19T09:34:06;8.70;;;2.75;;
64641;SDS011;59936;51.490;5.436;2023-09-19T09:36:35;10.40;;;2.80;;
64641;SDS011;59936;51.490;5.436;2023-09-19T09:39:06;9.20;;;2.60;;
64641;SDS011;59936;51.490;5.436;2023-09-19T09:41:36;12.20;;;2.80;;
64641;SDS011;59936;51.490;5.436;2023-09-19T09:44:17;9.80;;;3.30;;
64641;SDS011;59936;51.490;5.436;2023-09-19T09:46:47;7.40;;;2.85;;
64641;SDS011;59936;51.490;5.436;2023-09-19T09:49:25;5.90;;;2.40;;
64641;SDS011;59936;51.490;5.436;2023-09-19T09:52:05;8.65;;;2.75;;
64641;SDS011;59936;51.490;5.436;2023-09-19T09:54:35;7.50;;;2.30;;
64641;SDS011;59936;51.490;5.436;2023-09-19T09:57:05;9.30;;;3.10;;
64641;SDS011;59936;51.490;5.436;2023-09-19T09:59:51;8.20;;;2.90;;
64641;SDS011;59936;51.490;5.436;2023-09-19T10:02:28;7.20;;;2.80;;
64641;SDS011;59936;51.490;5.436;2023-09-19T10:04:59;8.60;;;2.70;;
64641;SDS011;59936;51.490;5.436;2023-09-19T10:07:28;7.80;;;1.90;;
64641;SDS011;59936;51.490;5.436;2023-09-19T10:10:00;11.30;;;2.30;;
64641;SDS011;59936;51.490;5.436;2023-09-19T10:12:31;4.60;;;2.20;;
64641;SDS011;59936;51.490;5.436;2023-09-19T10:15:01;9.50;;;2.70;;
64641;SDS011;59936;51.490;5.436;2023-09-19T10:17:32;6.40;;;2.60;;
64641;SDS011;59936;51.490;5.436;2023-09-19T10:20:04;8.30;;;2.80;;
64641;SDS011;59936;51.490;5.436;2023-09-19T10:22:34;8.60;;;3.10;;
64641;SDS011;59936;51.490;5.436;2023-09-19T10:25:04;8.70;;;2.60;;
64641;SDS011;59936;51.490;5.436;2023-09-19T10:27:34;4.90;;;2.10;;
64641;SDS011;59936;51.490;5.436;2023-09-19T10:30:05;7.75;;;2.70;;
64641;SDS011;59936;51.490;5.436;2023-09-19T10:32:36;11.80;;;2.60;;
64641;SDS011;59936;51.490;5.436;2023-09-19T10:35:08;7.90;;;2.60;;
64641;SDS011;59936;51.490;5.436;2023-09-19T10:37:39;8.30;;;2.80;;
64641;SDS011;59936;51.490;5.436;2023-09-19T10:40:12;6.40;;;2.60;;
64641;SDS011;59936;51.490;5.436;2023-09-19T10:42:43;10.60;;;2.70;;
64641;SDS011;59936;51.490;5.436;2023-09-19T10:45:16;8.90;;;2.40;;
64641;SDS011;59936;51.490;5.436;2023-09-19T10:47:45;8.50;;;2.80;;
64641;SDS011;59936;51.490;5.436;2023-09-19T10:50:23;5.60;;;2.30;;
64641;SDS011;59936;51.490;5.436;2023-09-19T10:52:53;5.80;;;2.40;;
64641;SDS011;59936;51.490;5.436;2023-09-19T10:55:24;7.40;;;2.70;;
64641;SDS011;59936;51.490;5.436;2023-09-19T10:57:56;8.50;;;3.10;;
64641;SDS011;59936;51.490;5.436;2023-09-19T11:00:25;5.30;;;2.20;;
64641;SDS011;59936;51.490;5.436;2023-09-19T11:05:40;10.10;;;2.50;;
64641;SDS011;59936;51.490;5.436;2023-09-19T11:08:10;6.80;;;2.20;;
64641;SDS011;59936;51.490;5.436;2023-09-19T11:13:24;7.80;;;2.50;;
64641;SDS011;59936;51.490;5.436;2023-09-19T11:26:44;4.60;;;2.10;;
64641;SDS011;59936;51.490;5.436;2023-09-19T11:29:29;18.80;;;2.60;;
64641;SDS011;59936;51.490;5.436;2023-09-19T11:31:59;4.90;;;2.10;;
64641;SDS011;59936;51.490;5.436;2023-09-19T11:34:37;4.65;;;1.75;;
64641;SDS011;59936;51.490;5.436;2023-09-19T11:39:38;6.85;;;1.90;;
64641;SDS011;59936;51.490;5.436;2023-09-19T11:48:07;5.60;;;1.70;;
64641;SDS011;59936;51.490;5.436;2023-09-19T11:50:38;3.40;;;1.90;;
64641;SDS011;59936;51.490;5.436;2023-09-19T11:53:07;5.00;;;2.00;;
64641;SDS011;59936;51.490;5.436;2023-09-19T11:55:38;6.20;;;1.90;;
64641;SDS011;59936;51.490;5.436;2023-09-19T11:58:08;3.20;;;1.95;;
64641;SDS011;59936;51.490;5.436;2023-09-19T12:00:41;4.10;;;1.70;;
64641;SDS011;59936;51.490;5.436;2023-09-19T12:03:13;5.50;;;1.80;;
64641;SDS011;59936;51.490;5.436;2023-09-19T12:05:45;5.30;;;2.20;;
64641;SDS011;59936;51.490;5.436;2023-09-19T12:08:14;3.20;;;1.80;;
64641;SDS011;59936;51.490;5.436;2023-09-19T12:10:50;3.60;;;1.60;;
64641;SDS011;59936;51.490;5.436;2023-09-19T12:15:48;6.20;;;1.70;;
64641;SDS011;59936;51.490;5.436;2023-09-19T12:18:26;6.00;;;2.30;;
64641;SDS011;59936;51.490;5.436;2023-09-19T12:20:56;4.50;;;1.90;;
64641;SDS011;59936;51.490;5.436;2023-09-19T12:23:25;4.10;;;1.90;;
64641;SDS011;59936;51.490;5.436;2023-09-19T12:25:54;3.50;;;1.70;;
64641;SDS011;59936;51.490;5.436;2023-09-19T12:28:24;4.50;;;1.70;;
64641;SDS011;59936;51.490;5.436;2023-09-19T12:30:55;5.60;;;1.40;;
64641;SDS011;59936;51.490;5.436;2023-09-19T12:33:29;3.60;;;1.70;;
64641;SDS011;59936;51.490;5.436;2023-09-19T12:35:57;3.40;;;1.70;;
64641;SDS011;59936;51.490;5.436;2023-09-19T12:38:26;4.40;;;1.30;;
64641;SDS011;59936;51.490;5.436;2023-09-19T12:40:57;5.90;;;1.85;;
64641;SDS011;59936;51.490;5.436;2023-09-19T12:43:30;6.90;;;1.40;;
64641;SDS011;59936;51.490;5.436;2023-09-19T12:46:00;4.60;;;1.70;;
64641;SDS011;59936;51.490;5.436;2023-09-19T12:48:28;6.10;;;2.00;;
64641;SDS011;59936;51.490;5.436;2023-09-19T12:53:37;5.35;;;1.90;;
64641;SDS011;59936;51.490;5.436;2023-09-19T12:56:09;1.80;;;1.10;;
64641;SDS011;59936;51.490;5.436;2023-09-19T13:04:10;2.30;;;1.40;;
64641;SDS011;59936;51.490;5.436;2023-09-19T13:06:48;9.40;;;1.90;;
64641;SDS011;59936;51.490;5.436;2023-09-19T13:09:19;3.90;;;1.50;;
64641;SDS011;59936;51.490;5.436;2023-09-19T13:11:49;3.00;;;1.30;;
64641;SDS011;59936;51.490;5.436;2023-09-19T13:14:25;1.90;;;1.30;;
64641;SDS011;59936;51.490;5.436;2023-09-19T13:17:01;4.20;;;1.50;;
64641;SDS011;59936;51.490;5.436;2023-09-19T13:19:41;1.20;;;1.10;;
64641;SDS011;59936;51.490;5.436;2023-09-19T13:25:09;2.70;;;1.30;;
64641;SDS011;59936;51.490;5.436;2023-09-19T13:27:42;5.70;;;1.70;;
64641;SDS011;59936;51.490;5.436;2023-09-19T13:30:12;2.40;;;1.40;;
64641;SDS011;59936;51.490;5.436;2023-09-19T13:32:42;5.20;;;1.40;;
64641;SDS011;59936;51.490;5.436;2023-09-19T13:35:11;4.90;;;1.40;;
64641;SDS011;59936;51.490;5.436;2023-09-19T13:37:40;2.10;;;1.30;;
64641;SDS011;59936;51.490;5.436;2023-09-19T13:40:10;3.10;;;1.60;;
64641;SDS011;59936;51.490;5.436;2023-09-19T13:42:41;2.50;;;1.50;;
64641;SDS011;59936;51.490;5.436;2023-09-19T13:45:10;4.90;;;1.60;;
64641;SDS011;59936;51.490;5.436;2023-09-19T13:47:39;1.80;;;1.20;;
64641;SDS011;59936;51.490;5.436;2023-09-19T13:50:08;2.70;;;1.30;;
64641;SDS011;59936;51.490;5.436;2023-09-19T13:52:37;2.80;;;1.30;;
64641;SDS011;59936;51.490;5.436;2023-09-19T13:55:06;4.00;;;1.60;;
64641;SDS011;59936;51.490;5.436;2023-09-19T13:57:35;7.30;;;2.00;;
64641;SDS011;59936;51.490;5.436;2023-09-19T14:00:09;5.10;;;1.60;;
64641;SDS011;59936;51.490;5.436;2023-09-19T14:02:38;5.65;;;1.80;;
64641;SDS011;59936;51.490;5.436;2023-09-19T14:05:06;5.70;;;1.60;;
64641;SDS011;59936;51.490;5.436;2023-09-19T14:07:35;4.80;;;1.20;;
64641;SDS011;59936;51.490;5.436;2023-09-19T14:10:04;5.50;;;1.50;;
64641;SDS011;59936;51.490;5.436;2023-09-19T14:12:33;4.20;;;1.70;;
64641;SDS011;59936;51.490;5.436;2023-09-19T14:15:02;2.50;;;1.30;;
64641;SDS011;59936;51.490;5.436;2023-09-19T14:17:38;5.60;;;1.60;;
64641;SDS011;59936;51.490;5.436;2023-09-19T14:20:07;9.25;;;1.60;;
64641;SDS011;59936;51.490;5.436;2023-09-19T14:22:36;5.15;;;1.75;;
64641;SDS011;59936;51.490;5.436;2023-09-19T14:25:05;7.90;;;1.80;;
64641;SDS011;59936;51.490;5.436;2023-09-19T14:27:34;2.40;;;1.50;;
64641;SDS011;59936;51.490;5.436;2023-09-19T14:30:03;4.70;;;1.40;;
64641;SDS011;59936;51.490;5.436;2023-09-19T14:32:33;4.90;;;1.40;;
64641;SDS011;59936;51.490;5.436;2023-09-19T14:35:02;3.40;;;1.20;;
64641;SDS011;59936;51.490;5.436;2023-09-19T14:37:31;4.15;;;1.20;;
64641;SDS011;59936;51.490;5.436;2023-09-19T14:39:59;3.60;;;1.30;;
64641;SDS011;59936;51.490;5.436;2023-09-19T14:42:28;7.80;;;2.10;;
64641;SDS011;59936;51.490;5.436;2023-09-19T14:44:57;2.10;;;1.20;;
64641;SDS011;59936;51.490;5.436;2023-09-19T14:47:25;5.75;;;1.50;;
64641;SDS011;59936;51.490;5.436;2023-09-19T14:49:54;2.80;;;1.10;;
64641;SDS011;59936;51.490;5.436;2023-09-19T14:52:22;3.10;;;1.60;;
64641;SDS011;59936;51.490;5.436;2023-09-19T14:54:51;3.20;;;1.40;;
64641;SDS011;59936;51.490;5.436;2023-09-19T14:57:20;3.60;;;1.30;;
64641;SDS011;59936;51.490;5.436;2023-09-19T14:59:48;4.40;;;1.10;;
64641;SDS011;59936;51.490;5.436;2023-09-19T15:02:17;2.00;;;1.10;;
64641;SDS011;59936;51.490;5.436;2023-09-19T15:04:46;5.10;;;1.90;;
64641;SDS011;59936;51.490;5.436;2023-09-19T15:07:14;3.50;;;1.80;;
64641;SDS011;59936;51.490;5.436;2023-09-19T15:09:43;6.90;;;1.70;;
64641;SDS011;59936;51.490;5.436;2023-09-19T15:12:12;3.30;;;1.50;;
64641;SDS011;59936;51.490;5.436;2023-09-19T15:14:41;2.20;;;1.00;;
64641;SDS011;59936;51.490;5.436;2023-09-19T15:17:09;4.10;;;1.80;;
64641;SDS011;59936;51.490;5.436;2023-09-19T15:19:38;2.40;;;1.30;;
64641;SDS011;59936;51.490;5.436;2023-09-19T15:22:06;3.10;;;1.30;;
64641;SDS011;59936;51.490;5.436;2023-09-19T15:24:35;4.40;;;1.50;;
64641;SDS011;59936;51.490;5.436;2023-09-19T15:27:04;1.30;;;1.20;;
64641;SDS011;59936;51.490;5.436;2023-09-19T15:29:32;4.20;;;1.50;;
64641;SDS011;59936;51.490;5.436;2023-09-19T15:32:04;2.90;;;1.50;;
64641;SDS011;59936;51.490;5.436;2023-09-19T15:34:33;2.90;;;1.50;;
64641;SDS011;59936;51.490;5.436;2023-09-19T15:37:02;4.00;;;1.70;;
64641;SDS011;59936;51.490;5.436;2023-09-19T15:39:30;4.50;;;1.70;;
64641;SDS011;59936;51.490;5.436;2023-09-19T15:41:59;2.40;;;1.50;;
64641;SDS011;59936;51.490;5.436;2023-09-19T15:44:27;5.00;;;1.70;;
64641;SDS011;59936;51.490;5.436;2023-09-19T15:46:56;4.80;;;1.90;;
64641;SDS011;59936;51.490;5.436;2023-09-19T15:49:25;5.30;;;1.70;;
64641;SDS011;59936;51.490;5.436;2023-09-19T15:51:53;4.10;;;1.30;;
64641;SDS011;59936;51.490;5.436;2023-09-19T15:54:22;2.60;;;1.60;;
64641;SDS011;59936;51.490;5.436;2023-09-19T15:56:53;5.50;;;1.70;;